Pacific Palisades, California
Current Conditions -  °F | °C
As of 6:51 PM on Thursday 20 Nov 2014 (Local Time) from KSMO Reporting Station
Overcast Overcast  
Wind Chill: 64°   Ceiling: 4600
Heat Index: 64°   Visibility: 10mi
Dew Point: 56°   Wind: 5mph
Humidity: 75%   Direction: 230°SW
Pressure: 30"   Gusts: NA
Location:  34.05°N, 118.53°W
Report Text: KSMO 210251Z 23004KT 10SM OVC046 18/13 A3000 RMK AO2 SLP156 T01780133 55001
Loading
Personal Weather Stations






























Interactive Weather Map New forecast layout! Learn more

10-Day Weather Forecast

Advertisements
Track Severe Weather on mobile